Portada
METAR-TAF:

METAR-TAF

Aeropuertos :

Aeropuerto Internacional de Mehrabad

Teherán, Irán

latitud: 35-41N, longitud: 051-21E, altitud: 1204 m

Observación

El informe se hizo hace 12 minutos, a las 22:00 UTC
Viento 4 kt del suroeste
Temperatura 29°C
Humedad 15%
Presión 1017 hPa
Visibilidad 10 km o más
Escasas nubes a una altura de 4000 ft
Cielo nuboso a una altura de 10000 ft

METAR: OIII 282200Z 23004KT 9999 FEW040 BKN100 29/M00 Q1017 A3004 NOSIG

Hora: 02:42 (22:12 UTC)

Pronóstico

El informe se hizo hace 4 horas y 52 minutos, a las 17:20 UTC
Pronóstico válido del 28 a las 18 UTC al 29 a las 24 UTC
Viento 8 kt del este-noreste
Visibilidad: 8000 m
Escasas nubes a una altura de 4000 ft
Temporalmente
del 29 a las 06 UTC al 29 a las 12 UTC
Viento 12 kt del sur-sureste
Temporalmente
del 29 a las 18 UTC al 29 a las 24 UTC
Viento 16 kt del norte-noroeste

TAF: OIII 281720Z 2818/2924 07008KT 8000 FEW040 TEMPO 2906/2912 15012KT TEMPO 2918/2924 34016KT

Observaciones y pronósticos meteorológicos de más de 4000 aeropuertos (mensajes METAR y TAF).

Los puntos amarillos y rojos representan las estaciones disponibles.

Ponga el ratón en el punto deseado para ver el nombre de la estación.

Haga clic para ver las observaciones y los pronósticos meteorológicos.

Para cambiar el mapa : haga clic en los botones verdes con una cruz de color negro para hacer un zoom, en el botón verde con un guión para alejar o en las flechas verdes para mapas adyacentes.


METAR-TAF: